sensor_id;sensor_type;location;lat;lon;timestamp;pressure;altitude;pressure_sealevel;temperature;humidity
1077;BME280;64114;48.726;9.370;2023-01-25T00:00:33;100349.75;;;4.60;100.00
1077;BME280;64114;48.726;9.370;2023-01-25T00:03:01;100339.63;;;4.76;99.07
1077;BME280;64114;48.726;9.370;2023-01-25T00:05:29;100307.25;;;4.57;98.15
1077;BME280;64114;48.726;9.370;2023-01-25T00:07:57;100340.06;;;4.69;98.07
1077;BME280;64114;48.726;9.370;2023-01-25T00:10:24;100332.34;;;4.83;97.75
1077;BME280;64114;48.726;9.370;2023-01-25T00:12:54;100316.19;;;4.65;97.77
1077;BME280;64114;48.726;9.370;2023-01-25T00:15:24;100344.13;;;4.65;98.89
1077;BME280;64114;48.726;9.370;2023-01-25T00:17:51;100338.19;;;4.65;99.09
1077;BME280;64114;48.726;9.370;2023-01-25T00:20:21;100302.19;;;4.57;98.51
1077;BME280;64114;48.726;9.370;2023-01-25T00:22:48;100313.06;;;4.40;99.46
1077;BME280;64114;48.726;9.370;2023-01-25T00:26:28;100289.72;;;4.15;100.00
1077;BME280;64114;48.726;9.370;2023-01-25T00:28:57;100285.16;;;4.10;100.00
1077;BME280;64114;48.726;9.370;2023-01-25T00:31:36;100346.53;;;4.47;100.00
1077;BME280;64114;48.726;9.370;2023-01-25T00:34:06;100340.13;;;4.54;100.00
1077;BME280;64114;48.726;9.370;2023-01-25T00:36:43;100338.53;;;4.88;98.96
1077;BME280;64114;48.726;9.370;2023-01-25T00:39:12;100315.09;;;4.77;98.57
1077;BME280;64114;48.726;9.370;2023-01-25T00:41:40;100334.50;;;4.91;97.17
1077;BME280;64114;48.726;9.370;2023-01-25T00:44:08;100317.19;;;4.84;96.50
1077;BME280;64114;48.726;9.370;2023-01-25T00:46:38;100322.97;;;4.82;96.79
1077;BME280;64114;48.726;9.370;2023-01-25T00:49:06;100321.97;;;4.94;96.58
1077;BME280;64114;48.726;9.370;2023-01-25T00:51:34;100307.31;;;4.74;97.75
1077;BME280;64114;48.726;9.370;2023-01-25T00:54:02;100316.47;;;4.87;96.42
1077;BME280;64114;48.726;9.370;2023-01-25T00:56:30;100254.94;;;4.44;96.18
1077;BME280;64114;48.726;9.370;2023-01-25T00:58:57;100326.47;;;4.84;96.97
1077;BME280;64114;48.726;9.370;2023-01-25T01:01:25;100317.09;;;4.83;97.00
1077;BME280;64114;48.726;9.370;2023-01-25T01:03:55;100310.69;;;4.89;96.17
1077;BME280;64114;48.726;9.370;2023-01-25T01:06:22;100320.84;;;4.89;96.13
1077;BME280;64114;48.726;9.370;2023-01-25T01:08:51;100329.97;;;4.86;96.73
1077;BME280;64114;48.726;9.370;2023-01-25T01:11:20;100314.88;;;4.89;96.13
1077;BME280;64114;48.726;9.370;2023-01-25T01:13:49;100319.78;;;4.86;96.67
1077;BME280;64114;48.726;9.370;2023-01-25T01:16:17;100314.03;;;4.88;96.93
1077;BME280;64114;48.726;9.370;2023-01-25T01:18:45;100311.22;;;4.84;97.21
1077;BME280;64114;48.726;9.370;2023-01-25T01:21:14;100308.50;;;4.80;96.94
1077;BME280;64114;48.726;9.370;2023-01-25T01:23:43;100317.19;;;4.84;96.91
1077;BME280;64114;48.726;9.370;2023-01-25T01:26:12;100312.91;;;4.83;97.17
1077;BME280;64114;48.726;9.370;2023-01-25T01:28:41;100315.91;;;4.76;97.56
1077;BME280;64114;48.726;9.370;2023-01-25T01:31:11;100312.56;;;4.77;97.95
1077;BME280;64114;48.726;9.370;2023-01-25T01:33:47;100318.03;;;4.85;97.03
1077;BME280;64114;48.726;9.370;2023-01-25T01:36:20;100298.41;;;4.65;96.60
1077;BME280;64114;48.726;9.370;2023-01-25T01:38:48;100312.56;;;4.77;97.48
1077;BME280;64114;48.726;9.370;2023-01-25T01:41:16;100310.44;;;4.85;97.12
1077;BME280;64114;48.726;9.370;2023-01-25T01:43:45;100314.81;;;4.87;97.08
1077;BME280;64114;48.726;9.370;2023-01-25T01:46:16;100313.19;;;4.73;97.57
1077;BME280;64114;48.726;9.370;2023-01-25T01:48:52;100313.34;;;4.76;97.85
1077;BME280;64114;48.726;9.370;2023-01-25T01:51:34;100313.03;;;4.70;97.96
1077;BME280;64114;48.726;9.370;2023-01-25T01:54:11;100314.94;;;4.74;97.97
1077;BME280;64114;48.726;9.370;2023-01-25T01:56:45;100315.72;;;4.73;98.06
1077;BME280;64114;48.726;9.370;2023-01-25T01:59:16;100307.47;;;4.77;97.35
1077;BME280;64114;48.726;9.370;2023-01-25T02:01:45;100314.94;;;4.74;97.53
1077;BME280;64114;48.726;9.370;2023-01-25T02:04:14;100307.03;;;4.69;98.03
1077;BME280;64114;48.726;9.370;2023-01-25T02:06:46;100305.56;;;4.73;98.01
1077;BME280;64114;48.726;9.370;2023-01-25T02:09:18;100308.91;;;4.72;97.70
1077;BME280;64114;48.726;9.370;2023-01-25T02:11:48;100311.69;;;4.76;96.90
1077;BME280;64114;48.726;9.370;2023-01-25T02:14:18;100312.47;;;4.75;97.76
1077;BME280;64114;48.726;9.370;2023-01-25T02:16:46;100308.91;;;4.72;97.25
1077;BME280;64114;48.726;9.370;2023-01-25T02:19:20;100316.34;;;4.69;97.80
1077;BME280;64114;48.726;9.370;2023-01-25T02:21:57;100308.63;;;4.67;97.97
1077;BME280;64114;48.726;9.370;2023-01-25T02:24:29;100305.63;;;4.58;98.74
1077;BME280;64114;48.726;9.370;2023-01-25T02:27:00;100306.69;;;4.78;97.71
1077;BME280;64114;48.726;9.370;2023-01-25T02:29:29;100307.84;;;4.68;98.51
1077;BME280;64114;48.726;9.370;2023-01-25T02:32:03;100306.66;;;4.61;98.15
1077;BME280;64114;48.726;9.370;2023-01-25T02:34:31;100303.66;;;4.69;97.98
1077;BME280;64114;48.726;9.370;2023-01-25T02:37:00;100303.81;;;4.72;98.08
1077;BME280;64114;48.726;9.370;2023-01-25T02:39:28;100299.25;;;4.66;98.35
1077;BME280;64114;48.726;9.370;2023-01-25T02:41:56;100301.72;;;4.64;98.78
1077;BME280;64114;48.726;9.370;2023-01-25T02:44:30;100295.00;;;4.65;99.32
1077;BME280;64114;48.726;9.370;2023-01-25T02:47:02;100289.53;;;4.74;98.59
1077;BME280;64114;48.726;9.370;2023-01-25T02:49:33;100294.44;;;4.71;98.35
1077;BME280;64114;48.726;9.370;2023-01-25T02:52:03;100293.31;;;4.65;99.05
1077;BME280;64114;48.726;9.370;2023-01-25T02:54:31;100293.38;;;4.67;99.04
1077;BME280;64114;48.726;9.370;2023-01-25T02:57:03;100293.50;;;4.69;98.47
1077;BME280;64114;48.726;9.370;2023-01-25T02:59:41;100292.06;;;4.74;98.33
1077;BME280;64114;48.726;9.370;2023-01-25T03:02:11;100292.91;;;4.58;99.36
1077;BME280;64114;48.726;9.370;2023-01-25T03:04:40;100288.31;;;4.67;98.68
1077;BME280;64114;48.726;9.370;2023-01-25T03:07:09;100285.94;;;4.39;100.00
1077;BME280;64114;48.726;9.370;2023-01-25T03:09:37;100287.78;;;4.73;98.94
1077;BME280;64114;48.726;9.370;2023-01-25T03:12:06;100272.25;;;4.52;98.81
1077;BME280;64114;48.726;9.370;2023-01-25T03:14:33;100277.06;;;4.62;99.23
1077;BME280;64114;48.726;9.370;2023-01-25T03:17:03;100276.09;;;4.76;98.02
1077;BME280;64114;48.726;9.370;2023-01-25T03:19:31;100274.53;;;4.78;97.18
1077;BME280;64114;48.726;9.370;2023-01-25T03:22:00;100272.94;;;4.64;98.09
1077;BME280;64114;48.726;9.370;2023-01-25T03:24:30;100260.06;;;4.61;99.71
1077;BME280;64114;48.726;9.370;2023-01-25T03:26:58;100251.84;;;4.50;99.52
1077;BME280;64114;48.726;9.370;2023-01-25T03:29:47;100250.22;;;4.35;100.00
1077;BME280;64114;48.726;9.370;2023-01-25T03:32:21;100252.56;;;4.32;100.00
1077;BME280;64114;48.726;9.370;2023-01-25T03:34:49;100251.44;;;4.27;100.00
1077;BME280;64114;48.726;9.370;2023-01-25T03:37:18;100241.13;;;4.39;100.00
1077;BME280;64114;48.726;9.370;2023-01-25T03:39:48;100243.81;;;4.74;98.55
1077;BME280;64114;48.726;9.370;2023-01-25T03:42:18;100236.72;;;4.85;97.06
1077;BME280;64114;48.726;9.370;2023-01-25T03:44:50;100240.97;;;4.84;96.49
1077;BME280;64114;48.726;9.370;2023-01-25T03:47:19;100228.06;;;4.64;97.02
1077;BME280;64114;48.726;9.370;2023-01-25T03:49:48;100239.34;;;4.70;97.36
1077;BME280;64114;48.726;9.370;2023-01-25T03:52:17;100236.88;;;4.55;98.21
1077;BME280;64114;48.726;9.370;2023-01-25T03:54:46;100244.50;;;4.55;98.57
1077;BME280;64114;48.726;9.370;2023-01-25T03:57:14;100244.81;;;4.61;98.31
1077;BME280;64114;48.726;9.370;2023-01-25T03:59:57;100237.28;;;4.62;97.80
1077;BME280;64114;48.726;9.370;2023-01-25T04:02:26;100239.91;;;4.64;97.89
1077;BME280;64114;48.726;9.370;2023-01-25T04:04:56;100235.81;;;4.51;97.88
1077;BME280;64114;48.726;9.370;2023-01-25T04:07:24;100242.63;;;4.52;98.74
1077;BME280;64114;48.726;9.370;2023-01-25T04:09:53;100245.34;;;4.55;97.92
1077;BME280;64114;48.726;9.370;2023-01-25T04:12:22;100232.75;;;4.57;98.91
1077;BME280;64114;48.726;9.370;2023-01-25T04:14:51;100236.50;;;4.80;100.00
1077;BME280;64114;48.726;9.370;2023-01-25T04:17:21;100242.38;;;4.79;100.00
1077;BME280;64114;48.726;9.370;2023-01-25T04:20:14;100250.09;;;4.97;99.33
1077;BME280;64114;48.726;9.370;2023-01-25T04:22:43;100247.06;;;4.88;97.80
1077;BME280;64114;48.726;9.370;2023-01-25T04:25:14;100240.78;;;4.81;97.04
1077;BME280;64114;48.726;9.370;2023-01-25T04:27:48;100238.47;;;4.86;95.97
1077;BME280;64114;48.726;9.370;2023-01-25T04:30:17;100234.03;;;4.82;95.79
1077;BME280;64114;48.726;9.370;2023-01-25T04:32:46;100236.66;;;4.83;96.04
1077;BME280;64114;48.726;9.370;2023-01-25T04:35:30;100234.59;;;4.76;95.43
1077;BME280;64114;48.726;9.370;2023-01-25T04:38:00;100227.72;;;4.58;97.11
1077;BME280;64114;48.726;9.370;2023-01-25T04:40:38;100232.19;;;4.62;96.98
1077;BME280;64114;48.726;9.370;2023-01-25T04:43:06;100227.84;;;4.45;98.04
1077;BME280;64114;48.726;9.370;2023-01-25T04:45:35;100226.91;;;4.43;98.15
1077;BME280;64114;48.726;9.370;2023-01-25T04:48:11;100226.72;;;4.40;99.05
1077;BME280;64114;48.726;9.370;2023-01-25T04:50:48;100229.22;;;4.23;100.00
1077;BME280;64114;48.726;9.370;2023-01-25T04:53:20;100223.34;;;4.24;100.00
1077;BME280;64114;48.726;9.370;2023-01-25T04:55:48;100224.63;;;4.47;98.36
1077;BME280;64114;48.726;9.370;2023-01-25T04:58:16;100228.78;;;4.62;96.87
1077;BME280;64114;48.726;9.370;2023-01-25T05:00:44;100226.25;;;4.62;96.52
1077;BME280;64114;48.726;9.370;2023-01-25T05:03:12;100216.44;;;4.53;96.39
1077;BME280;64114;48.726;9.370;2023-01-25T05:05:44;100220.22;;;4.60;96.09
1077;BME280;64114;48.726;9.370;2023-01-25T05:08:18;100223.13;;;4.51;97.12
1077;BME280;64114;48.726;9.370;2023-01-25T05:10:46;100220.63;;;4.84;94.92
1077;BME280;64114;48.726;9.370;2023-01-25T05:13:37;100230.22;;;4.90;92.52
1077;BME280;64114;48.726;9.370;2023-01-25T05:16:12;100226.50;;;4.83;93.07
1077;BME280;64114;48.726;9.370;2023-01-25T05:18:40;100222.84;;;4.78;94.10
1077;BME280;64114;48.726;9.370;2023-01-25T05:21:19;100215.13;;;4.76;93.97
1077;BME280;64114;48.726;9.370;2023-01-25T05:24:04;100214.25;;;4.59;95.15
1077;BME280;64114;48.726;9.370;2023-01-25T05:26:33;100212.41;;;4.73;94.16
1077;BME280;64114;48.726;9.370;2023-01-25T05:29:19;100207.97;;;4.69;94.72
1077;BME280;64114;48.726;9.370;2023-01-25T05:31:56;100213.22;;;4.72;95.07
1077;BME280;64114;48.726;9.370;2023-01-25T05:34:25;100201.81;;;4.64;94.00
1077;BME280;64114;48.726;9.370;2023-01-25T05:36:53;100214.78;;;4.70;93.67
1077;BME280;64114;48.726;9.370;2023-01-25T05:39:22;100213.28;;;4.57;94.68
1077;BME280;64114;48.726;9.370;2023-01-25T05:41:52;100212.47;;;4.42;95.66
1077;BME280;64114;48.726;9.370;2023-01-25T05:44:21;100205.75;;;4.59;94.17
1077;BME280;64114;48.726;9.370;2023-01-25T05:46:51;100203.59;;;4.50;94.41
1077;BME280;64114;48.726;9.370;2023-01-25T05:49:20;100204.84;;;4.42;94.51
1077;BME280;64114;48.726;9.370;2023-01-25T05:51:48;100207.66;;;4.31;95.81
1077;BME280;64114;48.726;9.370;2023-01-25T05:54:18;100212.25;;;4.22;96.74
1077;BME280;64114;48.726;9.370;2023-01-25T05:56:56;100206.06;;;4.48;94.87
1077;BME280;64114;48.726;9.370;2023-01-25T05:59:24;100188.03;;;4.44;94.14
1077;BME280;64114;48.726;9.370;2023-01-25T06:01:53;100206.28;;;4.53;94.20
1077;BME280;64114;48.726;9.370;2023-01-25T06:04:21;100201.25;;;4.70;92.78
1077;BME280;64114;48.726;9.370;2023-01-25T06:06:49;100198.38;;;4.80;91.65
1077;BME280;64114;48.726;9.370;2023-01-25T06:09:17;100196.38;;;4.74;91.74
1077;BME280;64114;48.726;9.370;2023-01-25T06:11:45;100198.28;;;4.78;91.28
1077;BME280;64114;48.726;9.370;2023-01-25T06:14:15;100195.38;;;4.71;91.67
1077;BME280;64114;48.726;9.370;2023-01-25T06:16:44;100205.38;;;4.68;91.67
1077;BME280;64114;48.726;9.370;2023-01-25T06:19:35;100207.34;;;4.57;93.13
1077;BME280;64114;48.726;9.370;2023-01-25T06:22:24;100201.34;;;4.40;94.06
1077;BME280;64114;48.726;9.370;2023-01-25T06:24:51;100195.53;;;4.26;95.42
1077;BME280;64114;48.726;9.370;2023-01-25T06:27:19;100200.50;;;4.24;94.86
1077;BME280;64114;48.726;9.370;2023-01-25T06:29:48;100198.69;;;4.22;95.32
1077;BME280;64114;48.726;9.370;2023-01-25T06:32:16;100201.09;;;4.35;95.36
1077;BME280;64114;48.726;9.370;2023-01-25T06:34:45;100189.38;;;4.37;94.35
1077;BME280;64114;48.726;9.370;2023-01-25T06:37:18;100185.59;;;4.30;94.79
1077;BME280;64114;48.726;9.370;2023-01-25T06:39:48;100186.16;;;4.25;95.33
1077;BME280;64114;48.726;9.370;2023-01-25T06:42:17;100166.44;;;4.04;95.07
1077;BME280;64114;48.726;9.370;2023-01-25T06:44:45;100194.31;;;4.19;95.79
1077;BME280;64114;48.726;9.370;2023-01-25T06:47:14;100189.63;;;4.10;96.21
1077;BME280;64114;48.726;9.370;2023-01-25T06:49:42;100185.09;;;4.36;95.49
1077;BME280;64114;48.726;9.370;2023-01-25T06:52:10;100188.31;;;4.65;92.74
1077;BME280;64114;48.726;9.370;2023-01-25T06:54:39;100185.78;;;4.65;92.04
1077;BME280;64114;48.726;9.370;2023-01-25T06:57:07;100187.81;;;4.56;91.75
1077;BME280;64114;48.726;9.370;2023-01-25T06:59:35;100175.72;;;4.35;93.50
1077;BME280;64114;48.726;9.370;2023-01-25T07:02:03;100181.63;;;4.19;94.68
1077;BME280;64114;48.726;9.370;2023-01-25T07:04:33;100181.53;;;4.17;95.50
1077;BME280;64114;48.726;9.370;2023-01-25T07:07:01;100179.47;;;4.10;96.48
1077;BME280;64114;48.726;9.370;2023-01-25T07:09:29;100177.44;;;4.19;96.44
1077;BME280;64114;48.726;9.370;2023-01-25T07:11:57;100171.28;;;4.31;95.73
1077;BME280;64114;48.726;9.370;2023-01-25T07:14:25;100167.66;;;4.59;92.79
1077;BME280;64114;48.726;9.370;2023-01-25T07:16:53;100173.03;;;4.48;92.60
1077;BME280;64114;48.726;9.370;2023-01-25T07:19:21;100164.47;;;4.79;90.74
1077;BME280;64114;48.726;9.370;2023-01-25T07:21:51;100165.09;;;4.75;90.85
1077;BME280;64114;48.726;9.370;2023-01-25T07:24:19;100167.56;;;4.74;91.11
1077;BME280;64114;48.726;9.370;2023-01-25T07:26:47;100163.19;;;4.71;90.96
1077;BME280;64114;48.726;9.370;2023-01-25T07:29:15;100163.69;;;4.64;91.90
1077;BME280;64114;48.726;9.370;2023-01-25T07:31:43;100169.56;;;4.63;91.71
1077;BME280;64114;48.726;9.370;2023-01-25T07:34:12;100154.47;;;4.66;91.89
1077;BME280;64114;48.726;9.370;2023-01-25T07:36:40;100167.31;;;4.86;90.31
1077;BME280;64114;48.726;9.370;2023-01-25T07:39:12;100167.31;;;4.69;90.30
1077;BME280;64114;48.726;9.370;2023-01-25T07:41:39;100160.28;;;4.80;90.34
1077;BME280;64114;48.726;9.370;2023-01-25T07:44:11;100166.44;;;4.52;91.42
1077;BME280;64114;48.726;9.370;2023-01-25T07:46:44;100162.94;;;4.33;92.99
1077;BME280;64114;48.726;9.370;2023-01-25T07:49:12;100154.25;;;4.13;94.38
1077;BME280;64114;48.726;9.370;2023-01-25T07:51:41;100166.03;;;4.28;94.53
1077;BME280;64114;48.726;9.370;2023-01-25T07:54:10;100168.09;;;4.35;93.32
1077;BME280;64114;48.726;9.370;2023-01-25T07:56:38;100168.28;;;4.38;92.92
1077;BME280;64114;48.726;9.370;2023-01-25T07:59:08;100161.84;;;4.61;91.63
1077;BME280;64114;48.726;9.370;2023-01-25T08:01:38;100163.22;;;4.55;91.18
1077;BME280;64114;48.726;9.370;2023-01-25T08:04:06;100146.44;;;4.58;91.50
1077;BME280;64114;48.726;9.370;2023-01-25T08:06:36;100141.84;;;4.68;90.49
1077;BME280;64114;48.726;9.370;2023-01-25T08:09:07;100149.63;;;4.87;89.17
1077;BME280;64114;48.726;9.370;2023-01-25T08:11:37;100161.78;;;4.76;89.90
1077;BME280;64114;48.726;9.370;2023-01-25T08:14:04;100163.13;;;4.70;88.58
1077;BME280;64114;48.726;9.370;2023-01-25T08:16:34;100153.69;;;4.50;89.63
1077;BME280;64114;48.726;9.370;2023-01-25T08:19:02;100158.47;;;4.61;89.53
1077;BME280;64114;48.726;9.370;2023-01-25T08:21:31;100164.78;;;4.69;88.74
1077;BME280;64114;48.726;9.370;2023-01-25T08:24:01;100159.94;;;4.57;89.42
1077;BME280;64114;48.726;9.370;2023-01-25T08:26:31;100164.38;;;4.45;89.77
1077;BME280;64114;48.726;9.370;2023-01-25T08:29:01;100170.97;;;4.41;90.91
1077;BME280;64114;48.726;9.370;2023-01-25T08:31:31;100167.00;;;4.46;90.35
1077;BME280;64114;48.726;9.370;2023-01-25T08:34:00;100170.66;;;4.68;90.86
1077;BME280;64114;48.726;9.370;2023-01-25T08:36:28;100162.25;;;4.69;90.12
1077;BME280;64114;48.726;9.370;2023-01-25T08:38:59;100163.69;;;4.80;89.25
1077;BME280;64114;48.726;9.370;2023-01-25T08:41:29;100165.84;;;4.73;89.63
1077;BME280;64114;48.726;9.370;2023-01-25T08:43:58;100165.19;;;4.60;90.39
1077;BME280;64114;48.726;9.370;2023-01-25T08:46:29;100156.78;;;4.61;90.19
1077;BME280;64114;48.726;9.370;2023-01-25T08:48:59;100159.00;;;4.55;90.45
1077;BME280;64114;48.726;9.370;2023-01-25T08:51:29;100149.31;;;4.48;91.20
1077;BME280;64114;48.726;9.370;2023-01-25T08:54:01;100128.69;;;4.75;88.85
1077;BME280;64114;48.726;9.370;2023-01-25T08:56:29;100145.41;;;4.71;88.49
1077;BME280;64114;48.726;9.370;2023-01-25T08:58:57;100139.31;;;4.51;90.21
1077;BME280;64114;48.726;9.370;2023-01-25T09:01:26;100139.38;;;4.69;89.39
1077;BME280;64114;48.726;9.370;2023-01-25T09:03:54;100133.81;;;4.76;88.55
1077;BME280;64114;48.726;9.370;2023-01-25T09:06:22;100130.31;;;4.91;87.20
1077;BME280;64114;48.726;9.370;2023-01-25T09:08:50;100128.03;;;4.96;87.22
1077;BME280;64114;48.726;9.370;2023-01-25T09:11:20;100129.22;;;4.86;87.47
1077;BME280;64114;48.726;9.370;2023-01-25T09:13:49;100125.56;;;4.80;87.89
1077;BME280;64114;48.726;9.370;2023-01-25T09:16:19;100133.66;;;4.90;87.67
1077;BME280;64114;48.726;9.370;2023-01-25T09:18:57;100135.03;;;4.83;87.79
1077;BME280;64114;48.726;9.370;2023-01-25T09:21:26;100137.31;;;4.78;88.02
1077;BME280;64114;48.726;9.370;2023-01-25T09:23:56;100123.91;;;4.81;87.94
1077;BME280;64114;48.726;9.370;2023-01-25T09:26:34;100131.06;;;4.88;88.87
1077;BME280;64114;48.726;9.370;2023-01-25T09:29:03;100137.41;;;4.97;87.84
1077;BME280;64114;48.726;9.370;2023-01-25T09:31:33;100131.91;;;4.89;88.16
1077;BME280;64114;48.726;9.370;2023-01-25T09:34:13;100130.25;;;5.06;86.82
1077;BME280;64114;48.726;9.370;2023-01-25T09:36:41;100128.25;;;5.00;87.06
1077;BME280;64114;48.726;9.370;2023-01-25T09:39:12;100124.53;;;4.77;87.35
1077;BME280;64114;48.726;9.370;2023-01-25T09:42:10;100125.25;;;4.91;88.29
1077;BME280;64114;48.726;9.370;2023-01-25T09:44:54;100124.34;;;5.07;86.53
1077;BME280;64114;48.726;9.370;2023-01-25T09:47:29;100128.13;;;5.32;84.47
1077;BME280;64114;48.726;9.370;2023-01-25T09:50:14;100122.81;;;5.11;85.04
1077;BME280;64114;48.726;9.370;2023-01-25T09:53:16;100126.97;;;4.92;86.85
1077;BME280;64114;48.726;9.370;2023-01-25T09:55:52;100131.06;;;5.23;85.27
1077;BME280;64114;48.726;9.370;2023-01-25T09:58:25;100127.22;;;5.31;84.06
1077;BME280;64114;48.726;9.370;2023-01-25T10:01:04;100125.03;;;5.21;83.78
1077;BME280;64114;48.726;9.370;2023-01-25T10:03:44;100127.06;;;5.10;85.75
1077;BME280;64114;48.726;9.370;2023-01-25T10:06:18;100125.84;;;5.20;85.15
1077;BME280;64114;48.726;9.370;2023-01-25T10:08:54;100125.66;;;4.99;84.90
1077;BME280;64114;48.726;9.370;2023-01-25T10:11:29;100121.69;;;4.87;86.55
1077;BME280;64114;48.726;9.370;2023-01-25T10:13:58;100120.78;;;5.03;86.19
1077;BME280;64114;48.726;9.370;2023-01-25T10:16:30;100123.25;;;5.02;86.40
1077;BME280;64114;48.726;9.370;2023-01-25T10:19:09;100112.50;;;5.07;85.81
1077;BME280;64114;48.726;9.370;2023-01-25T10:21:42;100113.78;;;4.99;86.21
1077;BME280;64114;48.726;9.370;2023-01-25T10:27:26;100087.91;;;4.90;85.84
1077;BME280;64114;48.726;9.370;2023-01-25T10:29:56;100104.22;;;4.93;86.35
1077;BME280;64114;48.726;9.370;2023-01-25T10:32:27;100098.22;;;4.93;86.18
1077;BME280;64114;48.726;9.370;2023-01-25T10:35:08;100096.50;;;4.92;86.73
1077;BME280;64114;48.726;9.370;2023-01-25T10:37:52;100084.72;;;4.94;87.10
1077;BME280;64114;48.726;9.370;2023-01-25T10:40:23;100084.34;;;5.21;85.72
1077;BME280;64114;48.726;9.370;2023-01-25T10:43:01;100079.75;;;5.48;84.04
1077;BME280;64114;48.726;9.370;2023-01-25T10:45:30;100084.50;;;5.24;84.01
1077;BME280;64114;48.726;9.370;2023-01-25T10:48:01;100076.16;;;5.27;83.93
1077;BME280;64114;48.726;9.370;2023-01-25T10:50:47;100078.28;;;5.35;83.79
1077;BME280;64114;48.726;9.370;2023-01-25T10:53:23;100065.91;;;5.25;84.12
1077;BME280;64114;48.726;9.370;2023-01-25T10:55:58;100067.22;;;5.17;85.22
1077;BME280;64114;48.726;9.370;2023-01-25T10:58:29;100069.59;;;5.14;84.95
1077;BME280;64114;48.726;9.370;2023-01-25T11:00:58;100068.41;;;5.23;83.61
1077;BME280;64114;48.726;9.370;2023-01-25T11:03:34;100063.53;;;5.46;82.80
1077;BME280;64114;48.726;9.370;2023-01-25T11:06:03;100067.16;;;5.33;83.29
1077;BME280;64114;48.726;9.370;2023-01-25T11:08:35;100050.50;;;5.22;83.86
1077;BME280;64114;48.726;9.370;2023-01-25T11:11:25;100050.28;;;5.17;84.75
1077;BME280;64114;48.726;9.370;2023-01-25T11:13:53;100053.63;;;5.34;84.22
1077;BME280;64114;48.726;9.370;2023-01-25T11:16:29;99966.09;;;4.75;83.79
1077;BME280;64114;48.726;9.370;2023-01-25T11:18:59;100048.13;;;5.43;83.01
1077;BME280;64114;48.726;9.370;2023-01-25T11:21:29;100056.13;;;5.51;81.90
1077;BME280;64114;48.726;9.370;2023-01-25T11:24:15;100042.59;;;5.16;84.08
1077;BME280;64114;48.726;9.370;2023-01-25T11:26:44;100042.81;;;5.20;84.30
1077;BME280;64114;48.726;9.370;2023-01-25T11:29:15;100048.84;;;5.41;83.79
1077;BME280;64114;48.726;9.370;2023-01-25T11:31:44;100031.84;;;5.39;83.48
1077;BME280;64114;48.726;9.370;2023-01-25T11:34:14;100033.50;;;5.21;84.06
1077;BME280;64114;48.726;9.370;2023-01-25T11:36:55;100033.06;;;5.12;84.21
1077;BME280;64114;48.726;9.370;2023-01-25T11:39:34;100031.91;;;5.23;85.35
1077;BME280;64114;48.726;9.370;2023-01-25T11:42:14;100052.84;;;5.17;84.26
1077;BME280;64114;48.726;9.370;2023-01-25T11:45:28;100016.03;;;5.45;83.96
1077;BME280;64114;48.726;9.370;2023-01-25T11:48:15;100015.34;;;5.31;84.06
1077;BME280;64114;48.726;9.370;2023-01-25T11:50:52;100007.31;;;5.40;83.43
1077;BME280;64114;48.726;9.370;2023-01-25T11:53:32;100003.34;;;5.47;82.78
1077;BME280;64114;48.726;9.370;2023-01-25T11:56:10;100001.19;;;5.18;84.16
1077;BME280;64114;48.726;9.370;2023-01-25T11:58:53;100001.56;;;5.08;85.06
1077;BME280;64114;48.726;9.370;2023-01-25T12:01:33;99995.00;;;5.31;84.68
1077;BME280;64114;48.726;9.370;2023-01-25T12:04:16;99974.72;;;5.51;82.87
1077;BME280;64114;48.726;9.370;2023-01-25T12:06:57;99923.78;;;4.93;83.43
1077;BME280;64114;48.726;9.370;2023-01-25T12:09:40;99977.94;;;5.29;83.85
1077;BME280;64114;48.726;9.370;2023-01-25T12:12:24;99969.88;;;5.37;83.53
1077;BME280;64114;48.726;9.370;2023-01-25T12:15:14;99963.13;;;5.38;84.25
1077;BME280;64114;48.726;9.370;2023-01-25T12:17:59;99953.16;;;5.43;82.65
1077;BME280;64114;48.726;9.370;2023-01-25T12:20:58;99948.44;;;5.32;83.50
1077;BME280;64114;48.726;9.370;2023-01-25T12:23:35;99940.59;;;5.28;84.01
1077;BME280;64114;48.726;9.370;2023-01-25T12:26:15;99935.66;;;5.13;83.74
1077;BME280;64114;48.726;9.370;2023-01-25T12:28:50;99858.34;;;4.71;84.91
1077;BME280;64114;48.726;9.370;2023-01-25T12:31:23;99918.91;;;4.98;85.39
1077;BME280;64114;48.726;9.370;2023-01-25T12:33:57;99915.66;;;5.01;85.85
1077;BME280;64114;48.726;9.370;2023-01-25T12:36:31;99904.88;;;5.06;85.25
1077;BME280;64114;48.726;9.370;2023-01-25T12:39:02;99906.84;;;5.12;84.76
1077;BME280;64114;48.726;9.370;2023-01-25T12:41:37;99884.84;;;4.94;85.18
1077;BME280;64114;48.726;9.370;2023-01-25T12:44:14;99892.41;;;5.11;84.99
1077;BME280;64114;48.726;9.370;2023-01-25T12:46:51;99893.34;;;5.13;84.54
1077;BME280;64114;48.726;9.370;2023-01-25T12:49:27;99886.44;;;5.11;84.79
1077;BME280;64114;48.726;9.370;2023-01-25T12:51:59;99861.09;;;4.94;85.13
1077;BME280;64114;48.726;9.370;2023-01-25T12:54:41;99885.56;;;5.10;85.67
1077;BME280;64114;48.726;9.370;2023-01-25T12:57:32;99865.38;;;4.95;85.69
1077;BME280;64114;48.726;9.370;2023-01-25T13:00:33;99867.69;;;5.08;85.89
1077;BME280;64114;48.726;9.370;2023-01-25T13:03:19;99791.47;;;4.53;85.70
1077;BME280;64114;48.726;9.370;2023-01-25T13:05:56;99859.50;;;4.96;87.05
1077;BME280;64114;48.726;9.370;2023-01-25T13:08:40;99855.72;;;4.88;87.67
1077;BME280;64114;48.726;9.370;2023-01-25T13:11:30;99845.13;;;4.97;85.87
1077;BME280;64114;48.726;9.370;2023-01-25T13:14:28;99844.75;;;4.89;86.67
1077;BME280;64114;48.726;9.370;2023-01-25T13:17:17;99856.53;;;4.87;87.04
1077;BME280;64114;48.726;9.370;2023-01-25T13:19:51;99829.19;;;4.81;86.94
1077;BME280;64114;48.726;9.370;2023-01-25T13:22:58;99840.19;;;4.82;87.24
1077;BME280;64114;48.726;9.370;2023-01-25T13:25:29;99803.59;;;4.40;88.17
1077;BME280;64114;48.726;9.370;2023-01-25T13:28:37;99830.41;;;4.71;88.48
1077;BME280;64114;48.726;9.370;2023-01-25T13:31:09;99826.22;;;5.09;85.32
1077;BME280;64114;48.726;9.370;2023-01-25T13:33:40;99801.28;;;4.83;85.03
1077;BME280;64114;48.726;9.370;2023-01-25T13:36:43;99830.41;;;4.71;86.68
1077;BME280;64114;48.726;9.370;2023-01-25T13:39:41;99838.31;;;4.77;87.69
1077;BME280;64114;48.726;9.370;2023-01-25T13:42:21;99821.38;;;4.96;86.34
1077;BME280;64114;48.726;9.370;2023-01-25T13:44:51;99821.88;;;5.07;86.19
1077;BME280;64114;48.726;9.370;2023-01-25T13:48:00;99811.69;;;4.87;86.38